sensor_id;sensor_type;location;lat;lon;timestamp;pressure;altitude;pressure_sealevel;temperature;humidity
73422;BME280;61637;47.760;-122.022;2023-05-25T00:00:01;101591.7;;;19.1;30.0
73422;BME280;61637;47.760;-122.022;2023-05-25T00:02:01;101591.7;;;19.1;30.0
73422;BME280;61637;47.760;-122.022;2023-05-25T00:04:01;101591.7;;;19.1;30.0
73422;BME280;61637;47.760;-122.022;2023-05-25T00:06:01;101591.7;;;19.1;30.0
73422;BME280;61637;47.760;-122.022;2023-05-25T00:08:01;101591.7;;;19.1;30.0
73422;BME280;61637;47.760;-122.022;2023-05-25T00:10:01;101591.7;;;19.2;30.0
73422;BME280;61637;47.760;-122.022;2023-05-25T00:12:01;101591.7;;;19.2;30.0
73422;BME280;61637;47.760;-122.022;2023-05-25T00:14:01;101591.7;;;19.2;30.0
73422;BME280;61637;47.760;-122.022;2023-05-25T00:16:01;101591.7;;;19.3;30.0
73422;BME280;61637;47.760;-122.022;2023-05-25T00:18:01;101591.7;;;19.4;30.0
73422;BME280;61637;47.760;-122.022;2023-05-25T00:20:01;101591.7;;;19.4;30.0
73422;BME280;61637;47.760;-122.022;2023-05-25T00:22:02;101591.7;;;19.4;30.0
73422;BME280;61637;47.760;-122.022;2023-05-25T00:24:01;101591.7;;;19.4;30.0
73422;BME280;61637;47.760;-122.022;2023-05-25T00:26:01;101591.7;;;19.5;30.0
73422;BME280;61637;47.760;-122.022;2023-05-25T00:28:01;101591.7;;;19.5;30.0
73422;BME280;61637;47.760;-122.022;2023-05-25T00:30:01;101591.7;;;19.5;30.0
73422;BME280;61637;47.760;-122.022;2023-05-25T00:32:01;101591.7;;;19.5;30.0
73422;BME280;61637;47.760;-122.022;2023-05-25T00:34:01;101591.7;;;19.6;30.0
73422;BME280;61637;47.760;-122.022;2023-05-25T00:36:01;101591.7;;;19.6;30.0
73422;BME280;61637;47.760;-122.022;2023-05-25T00:38:01;101591.7;;;19.8;30.0
73422;BME280;61637;47.760;-122.022;2023-05-25T00:40:01;101591.7;;;19.8;30.0
73422;BME280;61637;47.760;-122.022;2023-05-25T00:42:01;101591.7;;;19.8;30.0
73422;BME280;61637;47.760;-122.022;2023-05-25T00:44:01;101591.7;;;19.9;30.0
73422;BME280;61637;47.760;-122.022;2023-05-25T00:46:01;101591.7;;;19.8;30.0
73422;BME280;61637;47.760;-122.022;2023-05-25T00:48:01;101591.7;;;19.8;30.0
73422;BME280;61637;47.760;-122.022;2023-05-25T00:50:01;101591.7;;;19.8;30.0
73422;BME280;61637;47.760;-122.022;2023-05-25T00:52:01;101591.7;;;19.8;30.0
73422;BME280;61637;47.760;-122.022;2023-05-25T00:54:01;101591.7;;;19.8;30.0
73422;BME280;61637;47.760;-122.022;2023-05-25T00:56:01;101591.7;;;19.9;30.0
73422;BME280;61637;47.760;-122.022;2023-05-25T00:58:02;101591.7;;;19.9;30.0
73422;BME280;61637;47.760;-122.022;2023-05-25T01:00:01;101591.7;;;19.9;30.0
73422;BME280;61637;47.760;-122.022;2023-05-25T01:02:02;101591.7;;;20.0;30.0
73422;BME280;61637;47.760;-122.022;2023-05-25T01:04:01;101591.7;;;20.0;30.0
73422;BME280;61637;47.760;-122.022;2023-05-25T01:06:01;101591.7;;;20.0;30.0
73422;BME280;61637;47.760;-122.022;2023-05-25T01:08:01;101591.7;;;19.9;30.0
73422;BME280;61637;47.760;-122.022;2023-05-25T01:10:02;101591.7;;;19.9;30.0
73422;BME280;61637;47.760;-122.022;2023-05-25T01:12:01;101591.7;;;19.8;30.0
73422;BME280;61637;47.760;-122.022;2023-05-25T01:14:01;101591.7;;;19.8;30.0
73422;BME280;61637;47.760;-122.022;2023-05-25T01:16:01;101591.7;;;19.9;30.0
73422;BME280;61637;47.760;-122.022;2023-05-25T01:18:01;101591.7;;;20.0;30.0
73422;BME280;61637;47.760;-122.022;2023-05-25T01:20:01;101591.7;;;20.1;30.0
73422;BME280;61637;47.760;-122.022;2023-05-25T01:22:02;101591.7;;;20.1;30.0
73422;BME280;61637;47.760;-122.022;2023-05-25T01:24:02;101591.7;;;20.1;30.0
73422;BME280;61637;47.760;-122.022;2023-05-25T01:26:02;101591.7;;;20.1;30.0
73422;BME280;61637;47.760;-122.022;2023-05-25T01:28:02;101591.7;;;20.1;30.0
73422;BME280;61637;47.760;-122.022;2023-05-25T01:30:01;101591.7;;;20.1;30.0
73422;BME280;61637;47.760;-122.022;2023-05-25T01:32:01;101591.7;;;20.1;30.0
73422;BME280;61637;47.760;-122.022;2023-05-25T01:34:01;101591.7;;;20.1;30.0
73422;BME280;61637;47.760;-122.022;2023-05-25T01:36:01;101591.7;;;19.9;30.0
73422;BME280;61637;47.760;-122.022;2023-05-25T01:38:01;101591.7;;;19.8;30.0
73422;BME280;61637;47.760;-122.022;2023-05-25T01:40:01;101591.7;;;19.8;30.0
73422;BME280;61637;47.760;-122.022;2023-05-25T01:42:01;101591.7;;;19.7;30.0
73422;BME280;61637;47.760;-122.022;2023-05-25T01:44:01;101591.7;;;19.5;30.0
73422;BME280;61637;47.760;-122.022;2023-05-25T01:46:05;101591.7;;;19.3;30.0
73422;BME280;61637;47.760;-122.022;2023-05-25T01:48:04;101591.7;;;19.2;30.0
73422;BME280;61637;47.760;-122.022;2023-05-25T01:50:03;101591.7;;;19.1;30.0
73422;BME280;61637;47.760;-122.022;2023-05-25T01:52:04;101591.7;;;19.0;30.0
73422;BME280;61637;47.760;-122.022;2023-05-25T01:54:03;101591.7;;;18.9;30.0
73422;BME280;61637;47.760;-122.022;2023-05-25T01:56:01;101591.7;;;18.8;30.0
73422;BME280;61637;47.760;-122.022;2023-05-25T01:58:01;101591.7;;;18.7;30.0
73422;BME280;61637;47.760;-122.022;2023-05-25T02:00:01;101591.7;;;18.6;30.0
73422;BME280;61637;47.760;-122.022;2023-05-25T02:02:01;101591.7;;;18.5;30.0
73422;BME280;61637;47.760;-122.022;2023-05-25T02:04:01;101591.7;;;18.3;30.0
73422;BME280;61637;47.760;-122.022;2023-05-25T02:06:01;101591.7;;;18.3;30.0
73422;BME280;61637;47.760;-122.022;2023-05-25T02:08:01;101591.7;;;18.2;30.0
73422;BME280;61637;47.760;-122.022;2023-05-25T02:10:01;101591.7;;;18.2;30.0
73422;BME280;61637;47.760;-122.022;2023-05-25T02:12:01;101591.7;;;18.1;30.0
73422;BME280;61637;47.760;-122.022;2023-05-25T02:14:01;101591.7;;;18.0;30.0
73422;BME280;61637;47.760;-122.022;2023-05-25T02:16:01;101591.7;;;17.9;30.0
73422;BME280;61637;47.760;-122.022;2023-05-25T02:18:01;101591.7;;;17.8;30.0
73422;BME280;61637;47.760;-122.022;2023-05-25T02:20:01;101591.7;;;17.8;30.0
73422;BME280;61637;47.760;-122.022;2023-05-25T02:22:01;101591.7;;;17.7;30.0
73422;BME280;61637;47.760;-122.022;2023-05-25T02:24:01;101591.7;;;17.6;30.0
73422;BME280;61637;47.760;-122.022;2023-05-25T02:26:01;101591.7;;;17.6;30.0
73422;BME280;61637;47.760;-122.022;2023-05-25T02:28:01;101591.7;;;17.5;30.0
73422;BME280;61637;47.760;-122.022;2023-05-25T02:30:01;101591.7;;;17.4;30.0
73422;BME280;61637;47.760;-122.022;2023-05-25T02:32:01;101591.7;;;17.4;30.0
73422;BME280;61637;47.760;-122.022;2023-05-25T02:34:01;101591.7;;;17.4;30.0
73422;BME280;61637;47.760;-122.022;2023-05-25T02:36:01;101591.7;;;17.3;30.0
73422;BME280;61637;47.760;-122.022;2023-05-25T02:38:01;101591.7;;;17.2;30.0
73422;BME280;61637;47.760;-122.022;2023-05-25T02:40:01;101591.7;;;17.2;30.0
73422;BME280;61637;47.760;-122.022;2023-05-25T02:42:01;101591.7;;;17.1;30.0
73422;BME280;61637;47.760;-122.022;2023-05-25T02:44:01;101591.7;;;17.1;30.0
73422;BME280;61637;47.760;-122.022;2023-05-25T02:46:01;101591.7;;;16.9;30.0
73422;BME280;61637;47.760;-122.022;2023-05-25T02:48:01;101591.7;;;16.9;30.0
73422;BME280;61637;47.760;-122.022;2023-05-25T02:50:01;101591.7;;;16.8;30.0
73422;BME280;61637;47.760;-122.022;2023-05-25T02:52:01;101591.7;;;16.8;30.0
73422;BME280;61637;47.760;-122.022;2023-05-25T02:54:01;101591.7;;;16.7;30.0
73422;BME280;61637;47.760;-122.022;2023-05-25T02:56:01;101591.7;;;16.7;30.0
73422;BME280;61637;47.760;-122.022;2023-05-25T02:58:01;101591.7;;;16.7;30.0
73422;BME280;61637;47.760;-122.022;2023-05-25T03:00:01;101591.7;;;16.6;30.0
73422;BME280;61637;47.760;-122.022;2023-05-25T03:02:01;101591.7;;;16.6;30.0
73422;BME280;61637;47.760;-122.022;2023-05-25T03:04:01;101591.7;;;16.5;30.0
73422;BME280;61637;47.760;-122.022;2023-05-25T03:06:01;101591.7;;;16.5;30.0
73422;BME280;61637;47.760;-122.022;2023-05-25T03:08:01;101591.7;;;16.4;30.0
73422;BME280;61637;47.760;-122.022;2023-05-25T03:10:01;101591.7;;;16.4;30.0
73422;BME280;61637;47.760;-122.022;2023-05-25T03:12:01;101591.7;;;16.3;30.0
73422;BME280;61637;47.760;-122.022;2023-05-25T03:14:01;101591.7;;;16.3;30.0
73422;BME280;61637;47.760;-122.022;2023-05-25T03:16:01;101591.7;;;16.3;30.0
73422;BME280;61637;47.760;-122.022;2023-05-25T03:18:01;101591.7;;;16.2;30.0
73422;BME280;61637;47.760;-122.022;2023-05-25T03:20:01;101591.7;;;16.2;30.0
73422;BME280;61637;47.760;-122.022;2023-05-25T03:22:01;101591.7;;;16.2;30.0
73422;BME280;61637;47.760;-122.022;2023-05-25T03:24:01;101591.7;;;16.1;30.0
73422;BME280;61637;47.760;-122.022;2023-05-25T03:26:01;101591.7;;;16.1;30.0
73422;BME280;61637;47.760;-122.022;2023-05-25T03:28:01;101591.7;;;16.1;30.0
73422;BME280;61637;47.760;-122.022;2023-05-25T03:30:01;101591.7;;;16.0;30.0
73422;BME280;61637;47.760;-122.022;2023-05-25T03:32:01;101591.7;;;16.0;30.0
73422;BME280;61637;47.760;-122.022;2023-05-25T03:34:01;101591.7;;;16.0;30.0
73422;BME280;61637;47.760;-122.022;2023-05-25T03:36:01;101591.7;;;15.9;30.0
73422;BME280;61637;47.760;-122.022;2023-05-25T03:38:01;101591.7;;;15.9;30.0
73422;BME280;61637;47.760;-122.022;2023-05-25T03:40:01;101591.7;;;15.9;30.0
73422;BME280;61637;47.760;-122.022;2023-05-25T03:42:01;101591.7;;;15.8;30.0
73422;BME280;61637;47.760;-122.022;2023-05-25T03:44:01;101591.7;;;15.8;30.0
73422;BME280;61637;47.760;-122.022;2023-05-25T03:46:01;101591.7;;;15.8;30.0
73422;BME280;61637;47.760;-122.022;2023-05-25T03:48:01;101591.7;;;15.7;30.0
73422;BME280;61637;47.760;-122.022;2023-05-25T03:50:01;101591.7;;;15.7;30.0
73422;BME280;61637;47.760;-122.022;2023-05-25T03:52:01;101591.7;;;15.7;30.0
73422;BME280;61637;47.760;-122.022;2023-05-25T03:54:01;101591.7;;;15.6;30.0
73422;BME280;61637;47.760;-122.022;2023-05-25T03:56:01;101591.7;;;15.6;30.0
73422;BME280;61637;47.760;-122.022;2023-05-25T03:58:01;101591.7;;;15.6;30.0
73422;BME280;61637;47.760;-122.022;2023-05-25T04:00:01;101591.7;;;15.5;30.0
73422;BME280;61637;47.760;-122.022;2023-05-25T04:02:01;101591.7;;;15.4;30.0
73422;BME280;61637;47.760;-122.022;2023-05-25T04:04:01;101591.7;;;15.4;30.0
73422;BME280;61637;47.760;-122.022;2023-05-25T04:06:01;101591.7;;;15.3;30.0
73422;BME280;61637;47.760;-122.022;2023-05-25T04:08:01;101591.7;;;15.3;30.0
73422;BME280;61637;47.760;-122.022;2023-05-25T04:10:01;101591.7;;;15.3;30.0
73422;BME280;61637;47.760;-122.022;2023-05-25T04:12:01;101591.7;;;15.2;30.0
73422;BME280;61637;47.760;-122.022;2023-05-25T04:14:01;101591.7;;;15.2;30.0
73422;BME280;61637;47.760;-122.022;2023-05-25T04:16:01;101591.7;;;15.1;30.0
73422;BME280;61637;47.760;-122.022;2023-05-25T04:18:01;101591.7;;;15.1;30.0
73422;BME280;61637;47.760;-122.022;2023-05-25T04:20:01;101591.7;;;15.1;30.0
73422;BME280;61637;47.760;-122.022;2023-05-25T04:22:01;101591.7;;;14.9;45.3
73422;BME280;61637;47.760;-122.022;2023-05-25T04:24:01;101591.7;;;14.9;44.6
73422;BME280;61637;47.760;-122.022;2023-05-25T04:26:01;101591.7;;;14.9;45.4
73422;BME280;61637;47.760;-122.022;2023-05-25T04:28:01;101591.7;;;14.8;44.1
73422;BME280;61637;47.760;-122.022;2023-05-25T04:30:01;101591.7;;;14.8;44.1
73422;BME280;61637;47.760;-122.022;2023-05-25T04:32:01;101591.7;;;14.8;44.5
73422;BME280;61637;47.760;-122.022;2023-05-25T04:34:01;101591.7;;;14.7;43.7
73422;BME280;61637;47.760;-122.022;2023-05-25T04:36:01;101591.7;;;14.7;44.8
73422;BME280;61637;47.760;-122.022;2023-05-25T04:38:01;101591.7;;;14.6;44.5
73422;BME280;61637;47.760;-122.022;2023-05-25T04:40:01;101591.7;;;14.6;44.5
73422;BME280;61637;47.760;-122.022;2023-05-25T04:42:01;101591.7;;;14.6;43.4
73422;BME280;61637;47.760;-122.022;2023-05-25T04:44:01;101591.7;;;14.5;43.9
73422;BME280;61637;47.760;-122.022;2023-05-25T04:46:01;101591.7;;;14.4;43.6
73422;BME280;61637;47.760;-122.022;2023-05-25T04:48:01;101591.7;;;14.4;44.3
73422;BME280;61637;47.760;-122.022;2023-05-25T04:50:01;101591.7;;;14.4;44.5
73422;BME280;61637;47.760;-122.022;2023-05-25T04:52:01;101591.7;;;14.3;45.0
73422;BME280;61637;47.760;-122.022;2023-05-25T04:54:01;101591.7;;;14.3;45.0
73422;BME280;61637;47.760;-122.022;2023-05-25T04:56:01;101591.7;;;14.3;45.6
73422;BME280;61637;47.760;-122.022;2023-05-25T04:58:01;101591.7;;;14.2;46.6
73422;BME280;61637;47.760;-122.022;2023-05-25T05:00:01;101591.7;;;14.2;48.7
73422;BME280;61637;47.760;-122.022;2023-05-25T05:02:01;101591.7;;;14.1;47.5
73422;BME280;61637;47.760;-122.022;2023-05-25T05:04:01;101591.7;;;14.1;46.2
73422;BME280;61637;47.760;-122.022;2023-05-25T05:06:01;101591.7;;;14.1;45.4
73422;BME280;61637;47.760;-122.022;2023-05-25T05:08:01;101591.7;;;14.1;44.9
73422;BME280;61637;47.760;-122.022;2023-05-25T05:10:01;101591.7;;;14.1;45.8
73422;BME280;61637;47.760;-122.022;2023-05-25T05:12:01;101591.7;;;14.0;43.8
73422;BME280;61637;47.760;-122.022;2023-05-25T05:14:01;101591.7;;;13.9;43.8
73422;BME280;61637;47.760;-122.022;2023-05-25T05:16:01;101591.7;;;13.9;43.9
73422;BME280;61637;47.760;-122.022;2023-05-25T05:18:01;101591.7;;;13.9;44.8
73422;BME280;61637;47.760;-122.022;2023-05-25T05:20:01;101591.7;;;13.9;43.9
73422;BME280;61637;47.760;-122.022;2023-05-25T05:22:01;101591.7;;;13.8;44.7
73422;BME280;61637;47.760;-122.022;2023-05-25T05:24:01;101591.7;;;13.8;44.5
73422;BME280;61637;47.760;-122.022;2023-05-25T05:26:01;101591.7;;;13.8;43.5
73422;BME280;61637;47.760;-122.022;2023-05-25T05:28:01;101591.7;;;13.8;43.8
73422;BME280;61637;47.760;-122.022;2023-05-25T05:30:01;101591.7;;;13.7;44.3
73422;BME280;61637;47.760;-122.022;2023-05-25T05:32:01;101591.7;;;13.7;45.1
73422;BME280;61637;47.760;-122.022;2023-05-25T05:34:01;101591.7;;;13.7;46.8
73422;BME280;61637;47.760;-122.022;2023-05-25T05:36:01;101591.7;;;13.7;46.2
73422;BME280;61637;47.760;-122.022;2023-05-25T05:38:01;101591.7;;;13.6;46.2
73422;BME280;61637;47.760;-122.022;2023-05-25T05:40:01;101591.7;;;13.6;46.1
73422;BME280;61637;47.760;-122.022;2023-05-25T05:42:01;101591.7;;;13.5;46.4
73422;BME280;61637;47.760;-122.022;2023-05-25T05:44:01;101591.7;;;13.5;45.1
73422;BME280;61637;47.760;-122.022;2023-05-25T05:46:01;101591.7;;;13.4;45.8
73422;BME280;61637;47.760;-122.022;2023-05-25T05:48:01;101591.7;;;13.4;47.1
73422;BME280;61637;47.760;-122.022;2023-05-25T05:50:01;101591.7;;;13.4;46.4
73422;BME280;61637;47.760;-122.022;2023-05-25T05:52:01;101591.7;;;13.3;44.7
73422;BME280;61637;47.760;-122.022;2023-05-25T05:54:01;101591.7;;;13.3;46.0
73422;BME280;61637;47.760;-122.022;2023-05-25T05:56:01;101591.7;;;13.3;46.1
73422;BME280;61637;47.760;-122.022;2023-05-25T05:58:01;101591.7;;;13.3;45.8
73422;BME280;61637;47.760;-122.022;2023-05-25T06:00:01;101591.7;;;13.2;46.0
73422;BME280;61637;47.760;-122.022;2023-05-25T06:02:01;101591.7;;;13.2;45.9
73422;BME280;61637;47.760;-122.022;2023-05-25T06:04:01;101591.7;;;13.2;46.4
73422;BME280;61637;47.760;-122.022;2023-05-25T06:06:01;101591.7;;;13.2;48.1
73422;BME280;61637;47.760;-122.022;2023-05-25T06:08:01;101591.7;;;13.2;47.7
73422;BME280;61637;47.760;-122.022;2023-05-25T06:10:01;101591.7;;;13.1;46.3
73422;BME280;61637;47.760;-122.022;2023-05-25T06:12:01;101591.7;;;13.1;46.7
73422;BME280;61637;47.760;-122.022;2023-05-25T06:14:01;101591.7;;;13.1;46.4
73422;BME280;61637;47.760;-122.022;2023-05-25T06:16:01;101591.7;;;13.0;46.2
73422;BME280;61637;47.760;-122.022;2023-05-25T06:18:01;101591.7;;;13.0;47.1
73422;BME280;61637;47.760;-122.022;2023-05-25T06:20:01;101591.7;;;12.9;48.7
73422;BME280;61637;47.760;-122.022;2023-05-25T06:22:01;101591.7;;;12.9;48.7
73422;BME280;61637;47.760;-122.022;2023-05-25T06:24:01;101591.7;;;12.9;48.7
73422;BME280;61637;47.760;-122.022;2023-05-25T06:26:02;101591.7;;;12.8;48.7
73422;BME280;61637;47.760;-122.022;2023-05-25T06:28:01;101591.7;;;12.8;48.7
73422;BME280;61637;47.760;-122.022;2023-05-25T06:30:01;101591.7;;;12.8;48.7
73422;BME280;61637;47.760;-122.022;2023-05-25T06:32:01;101591.7;;;12.8;48.7
73422;BME280;61637;47.760;-122.022;2023-05-25T06:34:01;101591.7;;;12.8;48.7
73422;BME280;61637;47.760;-122.022;2023-05-25T06:36:01;101591.7;;;12.7;48.7
73422;BME280;61637;47.760;-122.022;2023-05-25T06:38:01;101591.7;;;12.7;48.7
73422;BME280;61637;47.760;-122.022;2023-05-25T06:40:01;101591.7;;;12.7;48.7
73422;BME280;61637;47.760;-122.022;2023-05-25T06:42:01;101591.7;;;12.6;48.7
73422;BME280;61637;47.760;-122.022;2023-05-25T06:44:01;101591.7;;;12.7;48.7
73422;BME280;61637;47.760;-122.022;2023-05-25T06:46:01;101591.7;;;12.6;48.7
73422;BME280;61637;47.760;-122.022;2023-05-25T06:48:01;101591.7;;;12.6;48.7
73422;BME280;61637;47.760;-122.022;2023-05-25T06:50:01;101591.7;;;12.5;48.7
73422;BME280;61637;47.760;-122.022;2023-05-25T06:52:01;101591.7;;;12.4;48.7
73422;BME280;61637;47.760;-122.022;2023-05-25T06:54:01;101591.7;;;12.4;48.7
73422;BME280;61637;47.760;-122.022;2023-05-25T06:56:01;101591.7;;;12.4;48.7
73422;BME280;61637;47.760;-122.022;2023-05-25T06:58:01;101591.7;;;12.4;48.7
73422;BME280;61637;47.760;-122.022;2023-05-25T07:00:01;101591.7;;;12.3;48.7
73422;BME280;61637;47.760;-122.022;2023-05-25T07:02:01;101591.7;;;12.3;48.7
73422;BME280;61637;47.760;-122.022;2023-05-25T07:04:01;101591.7;;;12.3;48.7
73422;BME280;61637;47.760;-122.022;2023-05-25T07:06:01;101591.7;;;12.3;48.7
73422;BME280;61637;47.760;-122.022;2023-05-25T07:08:01;101591.7;;;12.3;48.7
73422;BME280;61637;47.760;-122.022;2023-05-25T07:10:02;101591.7;;;12.3;48.7
73422;BME280;61637;47.760;-122.022;2023-05-25T07:12:01;101591.7;;;12.2;48.7
73422;BME280;61637;47.760;-122.022;2023-05-25T07:14:01;101591.7;;;12.2;48.7
73422;BME280;61637;47.760;-122.022;2023-05-25T07:16:01;101591.7;;;12.2;48.7
73422;BME280;61637;47.760;-122.022;2023-05-25T07:18:01;101591.7;;;12.1;48.7
73422;BME280;61637;47.760;-122.022;2023-05-25T07:20:01;101591.7;;;12.1;48.7
73422;BME280;61637;47.760;-122.022;2023-05-25T07:22:01;101591.7;;;12.1;48.7
73422;BME280;61637;47.760;-122.022;2023-05-25T07:24:01;101591.7;;;12.1;48.7
73422;BME280;61637;47.760;-122.022;2023-05-25T07:26:01;101591.7;;;12.1;48.7
73422;BME280;61637;47.760;-122.022;2023-05-25T07:28:01;101591.7;;;12.0;48.7
73422;BME280;61637;47.760;-122.022;2023-05-25T07:30:01;101591.7;;;11.9;48.7
73422;BME280;61637;47.760;-122.022;2023-05-25T07:32:01;101591.7;;;11.9;48.7
73422;BME280;61637;47.760;-122.022;2023-05-25T07:34:01;101591.7;;;11.9;48.7
73422;BME280;61637;47.760;-122.022;2023-05-25T07:36:01;101591.7;;;11.9;48.7
73422;BME280;61637;47.760;-122.022;2023-05-25T07:38:01;101591.7;;;11.8;48.7
73422;BME280;61637;47.760;-122.022;2023-05-25T07:40:01;101591.7;;;11.8;48.7
73422;BME280;61637;47.760;-122.022;2023-05-25T07:42:01;101591.7;;;11.8;48.7
73422;BME280;61637;47.760;-122.022;2023-05-25T07:44:01;101591.7;;;11.7;48.7
73422;BME280;61637;47.760;-122.022;2023-05-25T07:46:01;101591.7;;;11.7;48.7
73422;BME280;61637;47.760;-122.022;2023-05-25T07:48:01;101591.7;;;11.6;48.7
73422;BME280;61637;47.760;-122.022;2023-05-25T07:50:01;101591.7;;;11.6;48.7
73422;BME280;61637;47.760;-122.022;2023-05-25T07:52:01;101591.7;;;11.6;48.7
73422;BME280;61637;47.760;-122.022;2023-05-25T07:54:01;101591.7;;;11.6;48.7
73422;BME280;61637;47.760;-122.022;2023-05-25T07:56:01;101591.7;;;11.5;48.7
73422;BME280;61637;47.760;-122.022;2023-05-25T07:58:01;101591.7;;;11.5;48.7
73422;BME280;61637;47.760;-122.022;2023-05-25T08:00:01;101591.7;;;11.4;48.7
73422;BME280;61637;47.760;-122.022;2023-05-25T08:02:01;101591.7;;;11.4;48.7
73422;BME280;61637;47.760;-122.022;2023-05-25T08:04:01;101591.7;;;11.3;48.7
73422;BME280;61637;47.760;-122.022;2023-05-25T08:06:01;101591.7;;;11.3;48.7
73422;BME280;61637;47.760;-122.022;2023-05-25T08:08:01;101591.7;;;11.3;48.7
73422;BME280;61637;47.760;-122.022;2023-05-25T08:10:01;101591.7;;;11.3;48.7
73422;BME280;61637;47.760;-122.022;2023-05-25T08:12:01;101591.7;;;11.2;48.7
73422;BME280;61637;47.760;-122.022;2023-05-25T08:14:01;101591.7;;;11.2;48.7
73422;BME280;61637;47.760;-122.022;2023-05-25T08:16:01;101591.7;;;11.2;48.7
73422;BME280;61637;47.760;-122.022;2023-05-25T08:18:01;101591.7;;;11.2;48.7
73422;BME280;61637;47.760;-122.022;2023-05-25T08:20:01;101591.7;;;11.1;48.7
73422;BME280;61637;47.760;-122.022;2023-05-25T08:22:01;101591.7;;;11.1;48.7
73422;BME280;61637;47.760;-122.022;2023-05-25T08:24:01;101591.7;;;11.1;48.7
73422;BME280;61637;47.760;-122.022;2023-05-25T08:26:01;101591.7;;;11.0;48.7
73422;BME280;61637;47.760;-122.022;2023-05-25T08:28:01;101591.7;;;10.9;48.7
73422;BME280;61637;47.760;-122.022;2023-05-25T08:30:01;101591.7;;;10.9;48.7
73422;BME280;61637;47.760;-122.022;2023-05-25T08:32:01;101591.7;;;10.9;48.7
73422;BME280;61637;47.760;-122.022;2023-05-25T08:34:01;101591.7;;;10.9;48.7
73422;BME280;61637;47.760;-122.022;2023-05-25T08:36:01;101591.7;;;10.9;48.7
73422;BME280;61637;47.760;-122.022;2023-05-25T08:38:01;101591.7;;;10.9;48.7
73422;BME280;61637;47.760;-122.022;2023-05-25T08:40:01;101591.7;;;10.9;48.7
73422;BME280;61637;47.760;-122.022;2023-05-25T08:42:01;101591.7;;;10.9;48.7
73422;BME280;61637;47.760;-122.022;2023-05-25T08:44:01;101591.7;;;10.8;48.7
73422;BME280;61637;47.760;-122.022;2023-05-25T08:46:02;101591.7;;;10.8;48.7
73422;BME280;61637;47.760;-122.022;2023-05-25T08:48:01;101591.7;;;10.8;48.7
73422;BME280;61637;47.760;-122.022;2023-05-25T08:50:01;101591.7;;;10.8;48.7
73422;BME280;61637;47.760;-122.022;2023-05-25T08:52:01;101591.7;;;10.8;48.7
73422;BME280;61637;47.760;-122.022;2023-05-25T08:54:02;101591.7;;;10.8;48.7
73422;BME280;61637;47.760;-122.022;2023-05-25T08:56:01;101591.7;;;10.8;48.7
73422;BME280;61637;47.760;-122.022;2023-05-25T08:58:04;101591.7;;;10.8;48.7
73422;BME280;61637;47.760;-122.022;2023-05-25T09:00:02;101591.7;;;10.8;48.7
73422;BME280;61637;47.760;-122.022;2023-05-25T09:02:04;101591.7;;;10.7;48.7
73422;BME280;61637;47.760;-122.022;2023-05-25T09:04:01;101591.7;;;10.8;48.7
73422;BME280;61637;47.760;-122.022;2023-05-25T09:06:01;101591.7;;;10.7;48.7
73422;BME280;61637;47.760;-122.022;2023-05-25T09:08:01;101591.7;;;10.7;48.7
73422;BME280;61637;47.760;-122.022;2023-05-25T09:10:01;101591.7;;;10.7;48.7
73422;BME280;61637;47.760;-122.022;2023-05-25T09:12:01;101591.7;;;10.7;48.7
73422;BME280;61637;47.760;-122.022;2023-05-25T09:14:01;101591.7;;;10.7;48.7
73422;BME280;61637;47.760;-122.022;2023-05-25T09:16:01;101591.7;;;10.7;48.7
73422;BME280;61637;47.760;-122.022;2023-05-25T09:18:01;101591.7;;;10.6;48.7
73422;BME280;61637;47.760;-122.022;2023-05-25T09:20:01;101591.7;;;10.6;48.7
73422;BME280;61637;47.760;-122.022;2023-05-25T09:22:01;101591.7;;;10.6;48.7
73422;BME280;61637;47.760;-122.022;2023-05-25T09:24:01;101591.7;;;10.6;48.7
73422;BME280;61637;47.760;-122.022;2023-05-25T09:26:01;101591.7;;;10.6;48.7
73422;BME280;61637;47.760;-122.022;2023-05-25T09:28:01;101591.7;;;10.6;48.7
73422;BME280;61637;47.760;-122.022;2023-05-25T09:30:01;101591.7;;;10.6;48.7
73422;BME280;61637;47.760;-122.022;2023-05-25T09:32:01;101591.7;;;10.5;48.7
73422;BME280;61637;47.760;-122.022;2023-05-25T09:34:01;101591.7;;;10.5;48.7
73422;BME280;61637;47.760;-122.022;2023-05-25T09:36:01;101591.7;;;10.5;48.7
73422;BME280;61637;47.760;-122.022;2023-05-25T09:38:01;101591.7;;;10.5;48.7
73422;BME280;61637;47.760;-122.022;2023-05-25T09:40:01;101591.7;;;10.4;48.7
73422;BME280;61637;47.760;-122.022;2023-05-25T09:42:01;101591.7;;;10.4;48.7
73422;BME280;61637;47.760;-122.022;2023-05-25T09:44:01;101591.7;;;10.4;48.7
73422;BME280;61637;47.760;-122.022;2023-05-25T09:46:01;101591.7;;;10.4;48.7
73422;BME280;61637;47.760;-122.022;2023-05-25T09:48:01;101591.7;;;10.4;48.7
73422;BME280;61637;47.760;-122.022;2023-05-25T09:50:01;101591.7;;;10.4;48.7
73422;BME280;61637;47.760;-122.022;2023-05-25T09:52:01;101591.7;;;10.4;48.7
73422;BME280;61637;47.760;-122.022;2023-05-25T09:54:01;101591.7;;;10.3;48.7
73422;BME280;61637;47.760;-122.022;2023-05-25T09:56:01;101591.7;;;10.3;48.7
73422;BME280;61637;47.760;-122.022;2023-05-25T09:58:01;101591.7;;;10.3;48.7
73422;BME280;61637;47.760;-122.022;2023-05-25T10:00:01;101591.7;;;10.3;48.7
73422;BME280;61637;47.760;-122.022;2023-05-25T10:02:01;101591.7;;;10.3;48.7
73422;BME280;61637;47.760;-122.022;2023-05-25T10:04:01;101591.7;;;10.3;48.7
73422;BME280;61637;47.760;-122.022;2023-05-25T10:06:01;101591.7;;;10.3;48.7
73422;BME280;61637;47.760;-122.022;2023-05-25T10:08:01;101591.7;;;10.3;48.7
73422;BME280;61637;47.760;-122.022;2023-05-25T10:10:01;101591.7;;;10.3;48.7
73422;BME280;61637;47.760;-122.022;2023-05-25T10:12:01;101591.7;;;10.2;48.7
73422;BME280;61637;47.760;-122.022;2023-05-25T10:14:01;101591.7;;;10.3;48.7
73422;BME280;61637;47.760;-122.022;2023-05-25T10:16:01;101591.7;;;10.2;48.7
73422;BME280;61637;47.760;-122.022;2023-05-25T10:18:01;101591.7;;;10.2;48.7
73422;BME280;61637;47.760;-122.022;2023-05-25T10:20:02;101591.7;;;10.2;48.7
73422;BME280;61637;47.760;-122.022;2023-05-25T10:22:02;101591.7;;;10.2;48.7
73422;BME280;61637;47.760;-122.022;2023-05-25T10:24:02;101591.7;;;10.2;48.7
73422;BME280;61637;47.760;-122.022;2023-05-25T10:26:01;101591.7;;;10.2;48.7